VNKT/KTM METAR and TAF weather

Enter ICAO airport designator
Station Type Date Time Source
VNKT METAR 2022/11/30 11:30 UTC NOAA

VNKT 301130Z 26007KT 8000 FEW015 SCT250 17/10 Q1019 NOSIG


Station Type Date Time Source
VNKT Decoded METAR 2022/11/30 11:30 UTC NOAA

Kathmandu Airport, Nepal (VNKT) 27-42N 085-22E 1337M
Nov 30, 2022 - 06:30 AM EST / 2022.11.30 1130 UTC
Wind: from the W (260 degrees) at 8 MPH (7 KT):0
Visibility: 4 mile(s):0
Sky conditions: partly cloudy
Temperature: 62 F (17 C)
Dew Point: 50 F (10 C)
Relative Humidity: 63%
Pressure (altimeter): 30.09 in. Hg (1019 hPa)
ob: VNKT 301130Z 26007KT 8000 FEW015 SCT250 17/10 Q1019 NOSIG
cycle: 11

Station Type Date Time Source
VNKT TAF 2022/11/30 06:45 UTC NOAA

VNKT 300500Z 3006/0106 14003KT 6000 FEW015
BECMG 3008/3009 28007KT 8000 FEW015 SCT100
BECMG 3013/3015 09003KT 6000 FEW015
BECMG 0100/0102 VRB02KT 4000 BR FEW015 PROB40 0101/0103 1000 FG/BR
BECMG 0104/0105 14003KT 6000 FEW015

Example: see airport list